createdAt,value
2023-04-08T00:00:52.147Z,0.00
2023-04-08T00:01:51.458Z,0.00
2023-04-08T00:02:51.451Z,0.00
2023-04-08T00:03:51.449Z,0.00
2023-04-08T00:04:51.406Z,0.00
2023-04-08T00:05:51.338Z,0.00
2023-04-08T00:06:51.299Z,0.00
2023-04-08T00:07:51.326Z,0.00
2023-04-08T00:08:51.445Z,0.00
2023-04-08T00:09:51.294Z,0.00
2023-04-08T00:10:51.287Z,0.00
2023-04-08T00:11:51.013Z,0.00
2023-04-08T00:12:51.237Z,0.00
2023-04-08T00:13:51.238Z,0.00
2023-04-08T00:14:50.540Z,0.00
2023-04-08T00:15:51.197Z,0.00
2023-04-08T00:16:51.195Z,0.00
2023-04-08T00:17:51.941Z,0.00
2023-04-08T00:18:51.392Z,0.00
2023-04-08T00:19:51.163Z,0.00
2023-04-08T00:20:51.128Z,0.00
2023-04-08T00:21:51.097Z,0.00
2023-04-08T00:22:50.788Z,0.00
2023-04-08T00:23:51.088Z,0.00
2023-04-08T00:24:51.073Z,0.00
2023-04-08T00:25:50.866Z,0.00
2023-04-08T00:26:51.028Z,0.00
2023-04-08T00:27:51.051Z,0.00
2023-04-08T00:28:51.200Z,0.00
2023-04-08T00:29:51.684Z,0.00
2023-04-08T00:30:50.907Z,0.00
2023-04-08T00:31:50.962Z,0.00
2023-04-08T00:32:50.999Z,0.00
2023-04-08T00:33:51.688Z,0.00
2023-04-08T00:34:51.677Z,0.00
2023-04-08T00:35:51.694Z,0.00
2023-04-08T00:36:51.637Z,0.00
2023-04-08T00:37:51.628Z,0.00
2023-04-08T00:38:51.649Z,0.00
2023-04-08T00:39:51.587Z,0.00
2023-04-08T00:40:51.589Z,0.00
2023-04-08T00:41:51.574Z,0.00
2023-04-08T00:42:51.552Z,0.00
2023-04-08T00:43:51.547Z,0.00
2023-04-08T00:44:51.032Z,0.00
2023-04-08T00:45:50.788Z,0.00
2023-04-08T00:46:50.766Z,0.00
2023-04-08T00:47:50.802Z,0.00
2023-04-08T00:48:50.914Z,0.00
2023-04-08T00:49:50.760Z,0.00
2023-04-08T00:50:50.721Z,0.00
2023-04-08T00:51:50.756Z,0.00
2023-04-08T00:52:50.704Z,0.00
2023-04-08T00:53:50.683Z,0.00
2023-04-08T00:54:51.373Z,0.00
2023-04-08T00:55:50.659Z,0.00
2023-04-08T00:56:50.644Z,0.00
2023-04-08T00:57:50.645Z,0.00
2023-04-08T00:58:50.806Z,0.00
2023-04-08T00:59:50.598Z,0.00
2023-04-08T01:00:50.600Z,0.00
2023-04-08T01:01:51.311Z,0.00
2023-04-08T01:02:50.753Z,0.00
2023-04-08T01:03:50.604Z,0.00
2023-04-08T01:04:50.530Z,0.00
2023-04-08T01:05:50.524Z,0.00
2023-04-08T01:06:50.508Z,0.00
2023-04-08T01:07:51.172Z,0.00
2023-04-08T01:08:50.680Z,0.00
2023-04-08T01:09:50.470Z,0.00
2023-04-08T01:10:50.452Z,0.00
2023-04-08T01:11:50.418Z,0.00
2023-04-08T01:12:50.665Z,0.00
2023-04-08T01:13:51.087Z,0.00
2023-04-08T01:14:50.414Z,0.00
2023-04-08T01:15:51.112Z,0.00
2023-04-08T01:16:50.349Z,0.00
2023-04-08T01:17:50.409Z,0.00
2023-04-08T01:18:50.194Z,0.00
2023-04-08T01:19:50.329Z,0.00
2023-04-08T01:20:50.319Z,0.00
2023-04-08T01:21:50.281Z,0.00
2023-04-08T01:22:50.972Z,0.00
2023-04-08T01:23:50.978Z,0.00
2023-04-08T01:24:50.956Z,0.00
2023-04-08T01:25:50.930Z,0.00
2023-04-08T01:26:49.597Z,0.00
2023-04-08T01:27:50.220Z,0.00
2023-04-08T01:28:50.372Z,0.00
2023-04-08T01:29:50.918Z,0.00
2023-04-08T01:30:50.208Z,0.00
2023-04-08T01:31:50.168Z,0.00
2023-04-08T01:32:50.174Z,0.00
2023-04-08T01:33:50.142Z,0.00
2023-04-08T01:34:50.127Z,0.00
2023-04-08T01:35:50.833Z,0.00
2023-04-08T01:36:50.788Z,0.00
2023-04-08T01:37:50.064Z,0.00
2023-04-08T01:38:50.196Z,0.00
2023-04-08T01:39:50.065Z,0.00
2023-04-08T01:40:50.053Z,0.00
2023-04-08T01:41:50.073Z,0.00
2023-04-08T01:42:49.999Z,0.00
2023-04-08T01:43:50.691Z,0.00
2023-04-08T01:44:49.991Z,0.00
2023-04-08T01:45:49.986Z,0.00
2023-04-08T01:46:50.787Z,0.00
2023-04-08T01:47:49.962Z,0.00
2023-04-08T01:48:50.193Z,0.00
2023-04-08T01:49:49.934Z,0.00
2023-04-08T01:50:49.966Z,0.00
2023-04-08T01:51:49.948Z,0.00
2023-04-08T01:52:50.590Z,0.00
2023-04-08T01:53:49.878Z,0.00
2023-04-08T01:54:49.887Z,0.00
2023-04-08T01:55:50.532Z,0.00
2023-04-08T01:56:50.522Z,0.00
2023-04-08T01:57:50.059Z,0.00
2023-04-08T01:58:50.747Z,0.00
2023-04-08T01:59:49.793Z,0.00
2023-04-08T02:00:50.464Z,0.00
2023-04-08T02:01:49.866Z,0.00
2023-04-08T02:02:50.218Z,0.00
2023-04-08T02:03:49.800Z,0.00
2023-04-08T02:04:49.868Z,0.00
2023-04-08T02:05:50.381Z,0.00
2023-04-08T02:06:50.381Z,0.00
2023-04-08T02:07:49.696Z,0.00
2023-04-08T02:08:50.061Z,0.00
2023-04-08T02:09:49.653Z,0.00
2023-04-08T02:10:49.652Z,0.00
2023-04-08T02:11:49.639Z,0.00
2023-04-08T02:12:49.602Z,0.00
2023-04-08T02:13:49.618Z,0.00
2023-04-08T02:14:49.597Z,0.00
2023-04-08T02:15:49.655Z,0.00
2023-04-08T02:16:49.590Z,0.00
2023-04-08T02:17:49.617Z,0.00
2023-04-08T02:18:49.704Z,0.00
2023-04-08T02:19:49.543Z,0.00
2023-04-08T02:20:50.199Z,0.00
2023-04-08T02:21:49.493Z,0.00
2023-04-08T02:22:49.465Z,0.00
2023-04-08T02:23:50.132Z,0.00
2023-04-08T02:24:50.123Z,0.00
2023-04-08T02:25:50.169Z,0.00
2023-04-08T02:26:49.472Z,0.00
2023-04-08T02:27:49.145Z,0.00
2023-04-08T02:28:49.614Z,0.00
2023-04-08T02:29:49.148Z,0.00
2023-04-08T02:30:49.142Z,0.00
2023-04-08T02:31:49.220Z,0.00
2023-04-08T02:32:49.192Z,0.00
2023-04-08T02:33:49.336Z,0.00
2023-04-08T02:34:49.312Z,0.00
2023-04-08T02:35:49.312Z,0.00
2023-04-08T02:36:49.294Z,0.00
2023-04-08T02:37:49.298Z,0.00
2023-04-08T02:38:48.826Z,0.00
2023-04-08T02:39:48.651Z,0.00
2023-04-08T02:40:49.253Z,0.00
2023-04-08T02:41:48.721Z,0.00
2023-04-08T02:42:49.964Z,0.00
2023-04-08T02:43:48.778Z,0.00
2023-04-08T02:44:49.872Z,0.00
2023-04-08T02:45:49.183Z,0.00
2023-04-08T02:46:48.867Z,0.00
2023-04-08T02:47:48.924Z,0.00
2023-04-08T02:48:49.188Z,0.00
2023-04-08T02:49:49.125Z,0.00
2023-04-08T02:50:49.109Z,0.00
2023-04-08T02:51:49.771Z,0.00
2023-04-08T02:52:49.078Z,0.00
2023-04-08T02:53:49.033Z,0.00
2023-04-08T02:54:49.729Z,0.00
2023-04-08T02:55:49.752Z,0.00
2023-04-08T02:56:49.738Z,0.00
2023-04-08T02:57:49.755Z,0.00
2023-04-08T02:58:49.857Z,0.00
2023-04-08T02:59:49.695Z,0.00
2023-04-08T03:00:49.750Z,0.00
2023-04-08T03:01:49.066Z,0.00
2023-04-08T03:02:49.887Z,0.00
2023-04-08T03:03:49.739Z,0.00
2023-04-08T03:04:48.911Z,0.00
2023-04-08T03:05:48.896Z,0.00
2023-04-08T03:06:48.881Z,0.00
2023-04-08T03:07:48.911Z,0.00
2023-04-08T03:08:49.743Z,0.00
2023-04-08T03:09:48.840Z,0.00
2023-04-08T03:10:49.057Z,0.00
2023-04-08T03:11:48.167Z,0.00
2023-04-08T03:12:48.796Z,0.00
2023-04-08T03:13:48.761Z,0.00
2023-04-08T03:14:48.812Z,0.00
2023-04-08T03:15:49.434Z,0.00
2023-04-08T03:16:48.788Z,0.00
2023-04-08T03:17:48.764Z,0.00
2023-04-08T03:18:48.908Z,0.00
2023-04-08T03:19:48.710Z,0.00
2023-04-08T03:20:48.697Z,0.00
2023-04-08T03:21:48.686Z,0.00
2023-04-08T03:22:48.669Z,0.00
2023-04-08T03:23:48.619Z,0.00
2023-04-08T03:24:48.650Z,0.00
2023-04-08T03:25:49.288Z,0.00
2023-04-08T03:26:48.612Z,0.00
2023-04-08T03:27:48.600Z,0.00
2023-04-08T03:28:48.779Z,0.00
2023-04-08T03:29:48.627Z,0.00
2023-04-08T03:30:48.563Z,0.00
2023-04-08T03:31:49.211Z,0.00
2023-04-08T03:32:48.784Z,0.00
2023-04-08T03:33:49.189Z,0.00
2023-04-08T03:34:48.501Z,0.00
2023-04-08T03:35:48.526Z,0.00
2023-04-08T03:36:48.472Z,0.00
2023-04-08T03:37:48.460Z,0.00
2023-04-08T03:38:48.587Z,0.00
2023-04-08T03:39:47.696Z,0.00
2023-04-08T03:40:48.419Z,0.00
2023-04-08T03:41:47.704Z,0.00
2023-04-08T03:42:48.388Z,0.00
2023-04-08T03:43:47.694Z,0.00
2023-04-08T03:44:48.371Z,0.00
2023-04-08T03:45:49.045Z,0.00
2023-04-08T03:46:48.329Z,0.00
2023-04-08T03:47:47.772Z,0.00
2023-04-08T03:48:48.675Z,0.00
2023-04-08T03:49:47.691Z,0.00
2023-04-08T03:50:48.289Z,0.00
2023-04-08T03:51:47.693Z,0.00
2023-04-08T03:52:48.247Z,0.00
2023-04-08T03:53:47.700Z,0.00
2023-04-08T03:54:48.246Z,0.00
2023-04-08T03:55:48.209Z,0.00
2023-04-08T03:56:48.218Z,0.00
2023-04-08T03:57:47.696Z,0.00
2023-04-08T03:58:48.198Z,0.00
2023-04-08T03:59:47.715Z,0.00
2023-04-08T04:00:48.149Z,0.00
2023-04-08T04:01:48.232Z,0.00
2023-04-08T04:02:48.192Z,0.00
2023-04-08T04:03:48.879Z,0.00
2023-04-08T04:04:48.114Z,0.00
2023-04-08T04:05:48.076Z,0.00
2023-04-08T04:06:48.064Z,0.00
2023-04-08T04:07:48.043Z,0.00
2023-04-08T04:08:48.291Z,0.00
2023-04-08T04:09:48.013Z,0.00
2023-04-08T04:10:48.005Z,0.00
2023-04-08T04:11:47.994Z,0.00
2023-04-08T04:12:47.974Z,0.00
2023-04-08T04:13:47.951Z,0.00
2023-04-08T04:14:47.962Z,0.00
2023-04-08T04:15:48.660Z,0.00
2023-04-08T04:16:47.943Z,0.00
2023-04-08T04:17:47.939Z,0.00
2023-04-08T04:18:47.952Z,0.00
2023-04-08T04:19:47.894Z,0.00
2023-04-08T04:20:47.864Z,0.00
2023-04-08T04:21:47.860Z,0.00
2023-04-08T04:22:47.858Z,4.00
2023-04-08T04:23:47.805Z,4.00
2023-04-08T04:24:48.501Z,4.00
2023-04-08T04:25:47.886Z,4.00
2023-04-08T04:26:48.470Z,4.00
2023-04-08T04:27:47.791Z,4.00
2023-04-08T04:28:48.819Z,0.00
2023-04-08T04:29:48.419Z,4.00
2023-04-08T04:30:47.789Z,4.00
2023-04-08T04:31:47.713Z,4.00
2023-04-08T04:32:47.744Z,4.00
2023-04-08T04:33:47.685Z,4.00
2023-04-08T04:34:47.718Z,8.00
2023-04-08T04:35:48.364Z,8.00
2023-04-08T04:36:47.656Z,8.00
2023-04-08T04:37:47.631Z,8.00
2023-04-08T04:38:50.082Z,12.00
2023-04-08T04:39:48.328Z,12.00
2023-04-08T04:40:47.603Z,12.00
2023-04-08T04:41:47.591Z,12.00
2023-04-08T04:42:47.572Z,16.00
2023-04-08T04:43:48.237Z,20.00
2023-04-08T04:44:48.288Z,24.00
2023-04-08T04:45:48.196Z,28.00
2023-04-08T04:46:47.594Z,36.00
2023-04-08T04:47:47.284Z,40.00
2023-04-08T04:48:47.607Z,44.00
2023-04-08T04:49:47.239Z,56.00
2023-04-08T04:50:47.229Z,64.00
2023-04-08T04:51:47.242Z,68.00
2023-04-08T04:52:47.447Z,72.00
2023-04-08T04:53:47.239Z,72.00
2023-04-08T04:54:47.386Z,84.00
2023-04-08T04:55:46.676Z,100.00
2023-04-08T04:56:47.377Z,120.00
2023-04-08T04:57:47.364Z,140.00
2023-04-08T04:58:47.370Z,160.00
2023-04-08T04:59:47.321Z,184.00
2023-04-08T05:00:47.323Z,200.00
2023-04-08T05:01:48.248Z,216.00
2023-04-08T05:02:47.457Z,232.00
2023-04-08T05:03:47.326Z,248.00
2023-04-08T05:04:47.282Z,256.00
2023-04-08T05:05:47.255Z,264.00
2023-04-08T05:06:47.251Z,288.00
2023-04-08T05:07:47.245Z,332.00
2023-04-08T05:08:47.283Z,372.00
2023-04-08T05:09:47.189Z,408.00
2023-04-08T05:10:47.003Z,444.00
2023-04-08T05:11:47.184Z,484.00
2023-04-08T05:12:47.897Z,516.00
2023-04-08T05:13:47.163Z,552.00
2023-04-08T05:14:47.123Z,580.00
2023-04-08T05:15:47.151Z,608.00
2023-04-08T05:16:47.856Z,636.00
2023-04-08T05:17:47.908Z,672.00
2023-04-08T05:18:47.925Z,720.00
2023-04-08T05:19:47.834Z,772.00
2023-04-08T05:20:47.788Z,812.00
2023-04-08T05:21:47.769Z,848.00
2023-04-08T05:22:47.049Z,872.00
2023-04-08T05:23:47.027Z,900.00
2023-04-08T05:24:46.984Z,920.00
2023-04-08T05:25:47.013Z,940.00
2023-04-08T05:26:46.984Z,984.00
2023-04-08T05:27:47.039Z,1044.00
2023-04-08T05:28:47.760Z,1092.00
2023-04-08T05:29:46.925Z,1100.00
2023-04-08T05:30:46.926Z,1080.00
2023-04-08T05:31:47.032Z,1088.00
2023-04-08T05:32:47.648Z,1124.00
2023-04-08T05:33:46.887Z,1152.00
2023-04-08T05:34:46.857Z,1180.00
2023-04-08T05:35:47.607Z,1224.00
2023-04-08T05:36:46.844Z,1272.00
2023-04-08T05:37:46.835Z,1324.00
2023-04-08T05:38:46.827Z,1380.00
2023-04-08T05:39:46.790Z,1444.00
2023-04-08T05:40:46.801Z,1508.00
2023-04-08T05:41:47.460Z,1572.00
2023-04-08T05:42:46.782Z,1632.00
2023-04-08T05:43:46.762Z,1696.00
2023-04-08T05:44:46.716Z,1760.00
2023-04-08T05:45:46.753Z,1808.00
2023-04-08T05:46:46.816Z,1848.00
2023-04-08T05:47:47.410Z,1892.00
2023-04-08T05:48:46.735Z,1976.00
2023-04-08T05:49:46.667Z,2080.00
2023-04-08T05:50:46.669Z,2240.00
2023-04-08T05:51:46.648Z,2356.00
2023-04-08T05:52:46.705Z,2368.00
2023-04-08T05:53:46.648Z,2340.00
2023-04-08T05:54:46.593Z,2408.00
2023-04-08T05:55:46.609Z,2516.00
2023-04-08T05:56:47.272Z,2564.00
2023-04-08T05:57:46.562Z,2632.00
2023-04-08T05:58:46.553Z,2784.00
2023-04-08T05:59:46.511Z,2896.00
2023-04-08T06:00:47.248Z,2960.00
2023-04-08T06:01:47.271Z,3104.00
2023-04-08T06:02:46.609Z,3344.00
2023-04-08T06:03:46.590Z,3544.00
2023-04-08T06:04:46.591Z,3700.00
2023-04-08T06:05:45.822Z,3804.00
2023-04-08T06:06:46.442Z,3896.00
2023-04-08T06:07:46.432Z,3980.00
2023-04-08T06:08:45.815Z,4036.00
2023-04-08T06:09:46.379Z,4072.00
2023-04-08T06:10:46.384Z,4092.00
2023-04-08T06:11:46.385Z,4080.00
2023-04-08T06:12:46.357Z,4060.00
2023-04-08T06:13:45.809Z,4036.00
2023-04-08T06:14:46.313Z,4000.00
2023-04-08T06:15:46.313Z,4052.00
2023-04-08T06:16:46.310Z,4240.00
2023-04-08T06:17:46.342Z,4504.00
2023-04-08T06:18:46.281Z,4732.00
2023-04-08T06:19:46.955Z,4912.00
2023-04-08T06:20:46.271Z,5040.00
2023-04-08T06:21:46.232Z,5160.00
2023-04-08T06:22:46.216Z,5292.00
2023-04-08T06:23:46.213Z,5440.00
2023-04-08T06:24:46.163Z,5620.00
2023-04-08T06:25:46.185Z,5812.00
2023-04-08T06:26:46.173Z,5980.00
2023-04-08T06:27:46.144Z,6128.00
2023-04-08T06:28:46.399Z,6288.00
2023-04-08T06:29:47.081Z,6472.00
2023-04-08T06:30:46.794Z,6676.00
2023-04-08T06:31:46.138Z,6804.00
2023-04-08T06:32:46.116Z,6908.00
2023-04-08T06:33:46.745Z,7028.00
2023-04-08T06:34:46.046Z,7156.00
2023-04-08T06:35:46.845Z,7316.00
2023-04-08T06:36:46.026Z,7496.00
2023-04-08T06:37:46.737Z,7660.00
2023-04-08T06:38:46.005Z,7792.00
2023-04-08T06:39:45.969Z,7912.00
2023-04-08T06:40:45.980Z,8048.00
2023-04-08T06:41:45.964Z,8236.00
2023-04-08T06:42:45.944Z,8484.00
2023-04-08T06:43:45.936Z,8780.00
2023-04-08T06:44:45.894Z,9064.00
2023-04-08T06:45:46.001Z,9288.00
2023-04-08T06:46:45.903Z,9484.00
2023-04-08T06:47:45.894Z,9680.00
2023-04-08T06:48:45.874Z,9856.00
2023-04-08T06:49:45.824Z,10004.00
2023-04-08T06:50:45.839Z,10132.00
2023-04-08T06:51:45.826Z,10264.00
2023-04-08T06:52:45.807Z,10396.00
2023-04-08T06:53:46.518Z,10484.00
2023-04-08T06:54:45.816Z,10508.00
2023-04-08T06:55:45.766Z,10508.00
2023-04-08T06:56:45.777Z,10576.00
2023-04-08T06:57:46.428Z,10736.00
2023-04-08T06:58:45.723Z,10980.00
2023-04-08T06:59:45.709Z,11244.00
2023-04-08T07:00:45.715Z,11520.00
2023-04-08T07:01:46.489Z,11748.00
2023-04-08T07:02:45.913Z,11956.00
2023-04-08T07:03:45.809Z,12160.00
2023-04-08T07:04:46.865Z,12380.00
2023-04-08T07:05:45.636Z,12584.00
2023-04-08T07:06:45.351Z,12736.00
2023-04-08T07:07:45.605Z,12852.00
2023-04-08T07:08:45.349Z,12952.00
2023-04-08T07:09:45.338Z,13076.00
2023-04-08T07:10:45.291Z,13228.00
2023-04-08T07:11:45.556Z,13368.00
2023-04-08T07:12:45.355Z,13512.00
2023-04-08T07:13:46.195Z,13664.00
2023-04-08T07:14:45.358Z,13836.00
2023-04-08T07:15:45.517Z,14072.00
2023-04-08T07:16:45.456Z,14340.00
2023-04-08T07:17:45.367Z,14572.00
2023-04-08T07:18:45.361Z,14756.00
2023-04-08T07:19:45.439Z,14908.00
2023-04-08T07:20:44.821Z,15088.00
2023-04-08T07:21:45.418Z,15192.00
2023-04-08T07:22:45.423Z,15184.00
2023-04-08T07:23:45.392Z,15132.00
2023-04-08T07:24:44.665Z,15108.00
2023-04-08T07:25:46.105Z,15228.00
2023-04-08T07:26:44.869Z,15492.00
2023-04-08T07:27:45.339Z,15820.00
2023-04-08T07:28:44.914Z,16124.00
2023-04-08T07:29:45.288Z,16360.00
2023-04-08T07:30:45.379Z,16508.00
2023-04-08T07:31:45.969Z,16864.00
2023-04-08T07:32:45.074Z,17056.00
2023-04-08T07:33:45.293Z,17280.00
2023-04-08T07:34:45.221Z,17504.00
2023-04-08T07:35:45.943Z,17664.00
2023-04-08T07:36:45.225Z,17920.00
2023-04-08T07:37:45.197Z,18176.00
2023-04-08T07:38:45.912Z,18336.00
2023-04-08T07:39:45.149Z,18368.00
2023-04-08T07:40:45.875Z,18560.00
2023-04-08T07:41:45.147Z,18880.00
2023-04-08T07:42:45.140Z,19328.00
2023-04-08T07:43:45.795Z,19840.00
2023-04-08T07:44:44.399Z,20256.00
2023-04-08T07:45:45.172Z,20736.00
2023-04-08T07:46:45.080Z,21408.00
2023-04-08T07:47:45.097Z,21920.00
2023-04-08T07:48:45.103Z,22304.00
2023-04-08T07:49:45.016Z,22688.00
2023-04-08T07:51:08.480Z,22432.00
2023-04-08T07:51:46.008Z,21728.00
2023-04-08T07:52:45.668Z,20864.00
2023-04-08T07:53:44.993Z,20192.00
2023-04-08T07:54:44.967Z,19520.00
2023-04-08T07:55:44.945Z,19744.00
2023-04-08T07:56:44.997Z,20768.00
2023-04-08T07:57:45.597Z,21920.00
2023-04-08T07:58:44.933Z,22912.00
2023-04-08T07:59:44.909Z,23552.00
2023-04-08T08:00:44.297Z,23712.00
2023-04-08T08:01:44.899Z,23744.00
2023-04-08T08:02:44.955Z,23552.00
2023-04-08T08:03:44.945Z,23520.00
2023-04-08T08:04:44.924Z,24096.00
2023-04-08T08:05:44.833Z,24928.00
2023-04-08T08:06:44.804Z,25216.00
2023-04-08T08:07:44.827Z,25568.00
2023-04-08T08:08:44.795Z,25408.00
2023-04-08T08:09:44.767Z,24864.00
2023-04-08T08:10:44.735Z,22784.00
2023-04-08T08:11:44.742Z,21216.00
2023-04-08T08:12:44.729Z,21536.00
2023-04-08T08:13:44.709Z,22944.00
2023-04-08T08:14:44.242Z,26112.00
2023-04-08T08:15:44.705Z,24768.00
2023-04-08T08:16:44.908Z,24736.00
2023-04-08T08:17:44.753Z,30368.00
2023-04-08T08:18:44.639Z,26944.00
2023-04-08T08:19:44.628Z,26304.00
2023-04-08T08:20:44.597Z,24768.00
2023-04-08T08:21:44.599Z,26688.00
2023-04-08T08:22:54.479Z,24640.00
2023-04-08T08:23:45.593Z,25344.00
2023-04-08T08:24:43.838Z,23904.00
2023-04-08T08:25:44.541Z,22432.00
2023-04-08T08:26:44.550Z,21344.00
2023-04-08T08:27:44.627Z,22208.00
2023-04-08T08:28:44.012Z,24512.00
2023-04-08T08:29:44.518Z,25056.00
2023-04-08T08:30:43.758Z,28896.00
2023-04-08T08:31:44.535Z,57376.00
2023-04-08T08:32:44.492Z,28608.00
2023-04-08T08:33:44.447Z,27008.00
2023-04-08T08:34:43.972Z,28160.00
2023-04-08T08:35:44.430Z,28864.00
2023-04-08T08:36:43.940Z,28128.00
2023-04-08T08:37:44.381Z,28160.00
2023-04-08T08:38:44.405Z,28640.00
2023-04-08T08:39:44.359Z,31872.00
2023-04-08T08:40:44.322Z,31072.00
2023-04-08T08:41:44.342Z,28064.00
2023-04-08T08:42:44.320Z,28160.00
2023-04-08T08:43:44.297Z,31296.00
2023-04-08T08:44:44.298Z,24928.00
2023-04-08T08:45:44.244Z,24768.00
2023-04-08T08:46:44.334Z,26176.00
2023-04-08T08:47:44.272Z,26720.00
2023-04-08T08:48:44.239Z,27904.00
2023-04-08T08:49:44.217Z,30304.00
2023-04-08T08:50:44.195Z,29824.00
2023-04-08T08:51:44.192Z,50208.00
2023-04-08T08:52:44.188Z,32768.00
2023-04-08T08:53:44.166Z,28128.00
2023-04-08T08:54:44.165Z,28096.00
2023-04-08T08:56:13.479Z,28096.00
2023-04-08T08:56:45.130Z,54400.00
2023-04-08T08:57:44.117Z,27328.00
2023-04-08T08:58:44.787Z,24992.00
2023-04-08T08:59:44.088Z,23296.00
2023-04-08T09:00:43.347Z,22560.00
2023-04-08T09:01:44.151Z,21696.00
2023-04-08T09:02:44.231Z,20992.00
2023-04-08T09:03:44.236Z,20416.00
2023-04-08T09:04:44.158Z,19840.00
2023-04-08T09:05:44.065Z,19296.00
2023-04-08T09:06:44.665Z,19616.00
2023-04-08T09:07:43.978Z,20800.00
2023-04-08T09:08:43.230Z,22016.00
2023-04-08T09:09:43.949Z,24000.00
2023-04-08T09:10:43.948Z,22656.00
2023-04-08T09:11:43.944Z,23584.00
2023-04-08T09:12:43.911Z,25696.00
2023-04-08T09:13:43.887Z,27840.00
2023-04-08T09:14:43.898Z,30336.00
2023-04-08T09:15:43.838Z,33792.00
2023-04-08T09:16:43.307Z,41344.00
2023-04-08T09:17:43.865Z,31456.00
2023-04-08T09:18:43.860Z,29440.00
2023-04-08T09:19:44.043Z,29792.00
2023-04-08T09:20:43.772Z,28960.00
2023-04-08T09:21:43.790Z,28192.00
2023-04-08T09:22:43.767Z,28480.00
2023-04-08T09:23:43.782Z,29024.00
2023-04-08T09:24:43.014Z,30848.00
2023-04-08T09:25:44.460Z,32704.00
2023-04-08T09:26:43.717Z,33952.00
2023-04-08T09:27:43.480Z,33600.00
2023-04-08T09:28:42.969Z,31744.00
2023-04-08T09:29:43.699Z,33216.00
2023-04-08T09:30:43.186Z,33600.00
2023-04-08T09:31:43.700Z,43328.00
2023-04-08T09:32:42.928Z,52320.00
2023-04-08T09:33:43.475Z,39584.00
2023-04-08T09:34:43.488Z,37600.00
2023-04-08T09:35:43.604Z,34432.00
2023-04-08T09:36:43.593Z,33344.00
2023-04-08T09:37:43.571Z,35392.00
2023-04-08T09:38:42.822Z,73472.00
2023-04-08T09:39:43.535Z,27712.00
2023-04-08T09:40:42.840Z,26496.00
2023-04-08T09:41:42.906Z,27296.00
2023-04-08T09:42:42.967Z,28608.00
2023-04-08T09:43:42.987Z,32032.00
2023-04-08T09:44:43.026Z,70784.00
2023-04-08T09:45:43.471Z,71072.00
2023-04-08T09:46:43.449Z,77376.00
2023-04-08T09:47:43.470Z,79936.00
2023-04-08T09:48:42.704Z,81280.00
2023-04-08T09:49:43.507Z,81376.00
2023-04-08T09:50:43.379Z,82624.00
2023-04-08T09:51:43.350Z,85408.00
2023-04-08T09:52:43.372Z,83104.00
2023-04-08T09:53:44.073Z,80032.00
2023-04-08T09:54:44.051Z,82720.00
2023-04-08T09:55:43.318Z,62176.00
2023-04-08T09:56:43.321Z,86240.00
2023-04-08T09:57:44.018Z,83104.00
2023-04-08T09:58:44.006Z,87680.00
2023-04-08T09:59:43.269Z,88384.00
2023-04-08T10:00:43.292Z,87776.00
2023-04-08T10:01:43.268Z,68512.00
2023-04-08T10:02:43.410Z,34048.00
2023-04-08T10:03:43.271Z,35808.00
2023-04-08T10:04:42.489Z,55232.00
2023-04-08T10:05:43.196Z,30656.00
2023-04-08T10:06:43.160Z,30368.00
2023-04-08T10:07:43.217Z,32864.00
2023-04-08T10:08:43.159Z,70560.00
2023-04-08T10:09:43.177Z,70240.00
2023-04-08T10:10:43.142Z,55776.00
2023-04-08T10:11:43.087Z,26016.00
2023-04-08T10:12:42.506Z,25408.00
2023-04-08T10:13:43.080Z,25568.00
2023-04-08T10:14:43.069Z,26720.00
2023-04-08T10:15:43.724Z,30400.00
2023-04-08T10:16:43.046Z,88832.00
2023-04-08T10:17:43.110Z,89920.00
2023-04-08T10:18:43.013Z,90656.00
2023-04-08T10:19:43.041Z,91232.00
2023-04-08T10:20:42.521Z,89856.00
2023-04-08T10:21:42.955Z,87040.00
2023-04-08T10:22:42.977Z,89984.00
2023-04-08T10:23:42.944Z,91648.00
2023-04-08T10:24:42.932Z,87168.00
2023-04-08T10:25:42.919Z,45216.00
2023-04-08T10:26:43.134Z,62304.00
2023-04-08T10:27:42.901Z,42944.00
2023-04-08T10:28:42.348Z,50464.00
2023-04-08T10:29:42.858Z,93504.00
2023-04-08T10:30:42.852Z,88640.00
2023-04-08T10:31:42.837Z,46560.00
2023-04-08T10:32:42.849Z,46144.00
2023-04-08T10:33:42.822Z,90816.00
2023-04-08T10:34:42.058Z,70144.00
2023-04-08T10:35:42.850Z,60192.00
2023-04-08T10:36:42.039Z,80768.00
2023-04-08T10:37:42.061Z,79264.00
2023-04-08T10:38:42.829Z,35040.00
2023-04-08T10:39:42.719Z,33088.00
2023-04-08T10:40:42.802Z,33088.00
2023-04-08T10:41:42.691Z,34528.00
2023-04-08T10:42:42.666Z,37120.00
2023-04-08T10:43:42.680Z,54944.00
2023-04-08T10:44:41.920Z,40832.00
2023-04-08T10:45:42.092Z,43424.00
2023-04-08T10:46:42.663Z,85088.00
2023-04-08T10:47:42.627Z,34816.00
2023-04-08T10:48:42.659Z,25600.00
2023-04-08T10:49:42.601Z,23392.00
2023-04-08T10:50:42.573Z,22432.00
2023-04-08T10:51:42.563Z,21920.00
2023-04-08T10:52:41.819Z,21568.00
2023-04-08T10:53:42.076Z,20864.00
2023-04-08T10:54:42.535Z,20384.00
2023-04-08T10:55:42.507Z,20544.00
2023-04-08T10:56:42.492Z,21216.00
2023-04-08T10:57:42.463Z,22336.00
2023-04-08T10:58:42.459Z,23744.00
2023-04-08T10:59:42.464Z,25088.00
2023-04-08T11:00:42.073Z,26016.00
2023-04-08T11:01:42.151Z,28704.00
2023-04-08T11:02:42.480Z,56192.00
2023-04-08T11:03:42.525Z,34336.00
2023-04-08T11:04:43.102Z,33920.00
2023-04-08T11:05:42.404Z,36480.00
2023-04-08T11:06:42.368Z,85120.00
2023-04-08T11:07:42.320Z,90176.00
2023-04-08T11:08:42.340Z,95936.00
2023-04-08T11:09:42.314Z,95616.00
2023-04-08T11:10:42.313Z,95936.00
2023-04-08T11:11:42.290Z,90336.00
2023-04-08T11:12:42.262Z,53568.00
2023-04-08T11:13:51.261Z,53856.00
2023-04-08T11:14:43.254Z,86304.00
2023-04-08T11:15:42.277Z,70560.00
2023-04-08T11:16:41.513Z,34592.00
2023-04-08T11:17:42.206Z,31072.00
2023-04-08T11:18:42.869Z,26880.00
2023-04-08T11:19:42.219Z,23008.00
2023-04-08T11:20:42.395Z,19744.00
2023-04-08T11:21:42.184Z,17536.00
2023-04-08T11:22:42.112Z,15500.00
2023-04-08T11:23:42.825Z,13840.00
2023-04-08T11:24:42.133Z,12616.00
2023-04-08T11:25:42.138Z,11904.00
2023-04-08T11:26:42.115Z,11756.00
2023-04-08T11:27:42.079Z,12240.00
2023-04-08T11:28:42.308Z,13164.00
2023-04-08T11:29:42.132Z,14300.00
2023-04-08T11:30:42.710Z,15608.00
2023-04-08T11:31:42.052Z,17408.00
2023-04-08T11:32:42.754Z,19104.00
2023-04-08T11:33:42.001Z,20736.00
2023-04-08T11:34:42.001Z,22432.00
2023-04-08T11:35:42.017Z,24000.00
2023-04-08T11:36:42.187Z,25216.00
2023-04-08T11:37:41.944Z,25952.00
2023-04-08T11:38:41.943Z,26048.00
2023-04-08T11:39:41.900Z,25664.00
2023-04-08T11:40:41.912Z,24992.00
2023-04-08T11:41:41.585Z,24352.00
2023-04-08T11:42:42.119Z,24000.00
2023-04-08T11:43:41.654Z,24192.00
2023-04-08T11:44:41.833Z,25088.00
2023-04-08T11:45:41.594Z,26496.00
2023-04-08T11:46:41.657Z,28032.00
2023-04-08T11:47:41.594Z,29312.00
2023-04-08T11:48:41.366Z,29984.00
2023-04-08T11:49:41.619Z,30464.00
2023-04-08T11:50:41.754Z,30688.00
2023-04-08T11:51:41.586Z,30560.00
2023-04-08T11:52:41.716Z,29888.00
2023-04-08T11:53:41.216Z,28672.00
2023-04-08T11:54:41.734Z,26752.00
2023-04-08T11:55:41.594Z,24640.00
2023-04-08T11:56:41.618Z,22400.00
2023-04-08T11:57:41.591Z,20544.00
2023-04-08T11:58:41.648Z,19168.00
2023-04-08T11:59:40.935Z,18240.00
2023-04-08T12:00:42.313Z,17504.00
2023-04-08T12:01:41.637Z,16992.00
2023-04-08T12:02:41.624Z,16768.00
2023-04-08T12:03:41.155Z,16460.00
2023-04-08T12:04:41.634Z,16308.00
2023-04-08T12:05:41.091Z,16388.00
2023-04-08T12:06:41.568Z,16896.00
2023-04-08T12:07:41.540Z,17568.00
2023-04-08T12:08:41.494Z,18528.00
2023-04-08T12:09:41.514Z,19552.00
2023-04-08T12:10:41.729Z,20640.00
2023-04-08T12:11:41.510Z,21600.00
2023-04-08T12:12:42.135Z,22400.00
2023-04-08T12:13:41.431Z,23264.00
2023-04-08T12:14:41.437Z,23776.00
2023-04-08T12:15:41.438Z,23328.00
2023-04-08T12:16:42.388Z,22336.00
2023-04-08T12:17:42.158Z,21248.00
2023-04-08T12:18:42.112Z,20352.00
2023-04-08T12:19:41.374Z,19840.00
2023-04-08T12:20:42.082Z,19776.00
2023-04-08T12:21:41.341Z,20576.00
2023-04-08T12:22:41.329Z,22368.00